sensor_id;sensor_type;location;lat;lon;timestamp;P1;durP1;ratioP1;P2;durP2;ratioP2
60464;SDS011;46314;52.392;9.758;2023-06-22T00:02:18;17.38;;;15.63;;
60464;SDS011;46314;52.392;9.758;2023-06-22T00:04:45;17.02;;;15.48;;
60464;SDS011;46314;52.392;9.758;2023-06-22T00:07:13;17.98;;;16.40;;
60464;SDS011;46314;52.392;9.758;2023-06-22T00:09:39;17.45;;;15.95;;
60464;SDS011;46314;52.392;9.758;2023-06-22T00:12:06;18.55;;;16.85;;
60464;SDS011;46314;52.392;9.758;2023-06-22T00:14:33;18.88;;;17.23;;
60464;SDS011;46314;52.392;9.758;2023-06-22T00:16:59;17.98;;;16.48;;
60464;SDS011;46314;52.392;9.758;2023-06-22T00:19:26;19.00;;;17.25;;
60464;SDS011;46314;52.392;9.758;2023-06-22T00:21:52;18.75;;;17.15;;
60464;SDS011;46314;52.392;9.758;2023-06-22T00:24:20;17.67;;;16.13;;
60464;SDS011;46314;52.392;9.758;2023-06-22T00:26:47;18.35;;;16.67;;
60464;SDS011;46314;52.392;9.758;2023-06-22T00:29:14;18.23;;;16.73;;
60464;SDS011;46314;52.392;9.758;2023-06-22T00:31:40;16.85;;;15.45;;
60464;SDS011;46314;52.392;9.758;2023-06-22T00:34:07;17.63;;;15.85;;
60464;SDS011;46314;52.392;9.758;2023-06-22T00:36:34;18.10;;;16.67;;
60464;SDS011;46314;52.392;9.758;2023-06-22T00:39:01;18.42;;;16.83;;
60464;SDS011;46314;52.392;9.758;2023-06-22T00:41:28;17.83;;;16.33;;
60464;SDS011;46314;52.392;9.758;2023-06-22T00:43:55;17.00;;;15.70;;
60464;SDS011;46314;52.392;9.758;2023-06-22T00:46:22;17.13;;;15.73;;
60464;SDS011;46314;52.392;9.758;2023-06-22T00:48:49;16.50;;;15.00;;
60464;SDS011;46314;52.392;9.758;2023-06-22T00:51:17;17.85;;;16.33;;
60464;SDS011;46314;52.392;9.758;2023-06-22T00:53:44;18.10;;;16.50;;
60464;SDS011;46314;52.392;9.758;2023-06-22T00:56:11;18.88;;;17.27;;
60464;SDS011;46314;52.392;9.758;2023-06-22T00:58:39;17.17;;;15.70;;
60464;SDS011;46314;52.392;9.758;2023-06-22T01:01:06;15.70;;;14.40;;
60464;SDS011;46314;52.392;9.758;2023-06-22T01:03:32;16.48;;;15.07;;
60464;SDS011;46314;52.392;9.758;2023-06-22T01:06:00;16.67;;;15.25;;
60464;SDS011;46314;52.392;9.758;2023-06-22T01:08:34;16.60;;;14.98;;
60464;SDS011;46314;52.392;9.758;2023-06-22T01:11:09;16.42;;;15.02;;
60464;SDS011;46314;52.392;9.758;2023-06-22T01:13:41;17.92;;;16.40;;
60464;SDS011;46314;52.392;9.758;2023-06-22T01:16:15;17.10;;;15.38;;
60464;SDS011;46314;52.392;9.758;2023-06-22T01:18:46;16.48;;;15.00;;
60464;SDS011;46314;52.392;9.758;2023-06-22T01:21:16;17.95;;;16.38;;
60464;SDS011;46314;52.392;9.758;2023-06-22T01:26:37;17.38;;;15.77;;
60464;SDS011;46314;52.392;9.758;2023-06-22T01:29:09;16.48;;;15.07;;
60464;SDS011;46314;52.392;9.758;2023-06-22T01:31:38;16.35;;;14.73;;
60464;SDS011;46314;52.392;9.758;2023-06-22T01:34:07;15.88;;;14.57;;
60464;SDS011;46314;52.392;9.758;2023-06-22T01:36:34;16.42;;;14.93;;
60464;SDS011;46314;52.392;9.758;2023-06-22T01:39:02;16.10;;;14.60;;
60464;SDS011;46314;52.392;9.758;2023-06-22T01:41:33;16.25;;;14.85;;
60464;SDS011;46314;52.392;9.758;2023-06-22T01:44:01;17.30;;;15.75;;
60464;SDS011;46314;52.392;9.758;2023-06-22T01:46:32;15.70;;;14.40;;
60464;SDS011;46314;52.392;9.758;2023-06-22T01:49:00;16.35;;;14.95;;
60464;SDS011;46314;52.392;9.758;2023-06-22T01:51:27;15.13;;;13.77;;
60464;SDS011;46314;52.392;9.758;2023-06-22T01:53:53;15.75;;;14.35;;
60464;SDS011;46314;52.392;9.758;2023-06-22T01:56:20;15.32;;;14.07;;
60464;SDS011;46314;52.392;9.758;2023-06-22T01:58:48;16.17;;;14.68;;
60464;SDS011;46314;52.392;9.758;2023-06-22T02:01:23;15.45;;;14.10;;
60464;SDS011;46314;52.392;9.758;2023-06-22T02:03:58;15.68;;;14.25;;
60464;SDS011;46314;52.392;9.758;2023-06-22T02:06:30;15.20;;;13.98;;
60464;SDS011;46314;52.392;9.758;2023-06-22T02:08:59;15.40;;;14.10;;
60464;SDS011;46314;52.392;9.758;2023-06-22T02:11:28;15.43;;;14.13;;
60464;SDS011;46314;52.392;9.758;2023-06-22T02:13:56;15.90;;;14.50;;
60464;SDS011;46314;52.392;9.758;2023-06-22T02:16:24;15.52;;;14.13;;
60464;SDS011;46314;52.392;9.758;2023-06-22T02:18:52;15.77;;;14.38;;
60464;SDS011;46314;52.392;9.758;2023-06-22T02:21:20;15.13;;;13.82;;
60464;SDS011;46314;52.392;9.758;2023-06-22T02:23:47;15.18;;;13.77;;
60464;SDS011;46314;52.392;9.758;2023-06-22T02:26:15;14.70;;;13.50;;
60464;SDS011;46314;52.392;9.758;2023-06-22T02:28:43;15.35;;;13.85;;
60464;SDS011;46314;52.392;9.758;2023-06-22T02:31:09;15.43;;;13.93;;
60464;SDS011;46314;52.392;9.758;2023-06-22T02:33:36;16.38;;;14.98;;
60464;SDS011;46314;52.392;9.758;2023-06-22T02:36:03;15.77;;;14.27;;
60464;SDS011;46314;52.392;9.758;2023-06-22T02:38:31;16.00;;;14.52;;
60464;SDS011;46314;52.392;9.758;2023-06-22T02:40:57;16.63;;;15.15;;
60464;SDS011;46314;52.392;9.758;2023-06-22T02:43:24;15.82;;;14.43;;
60464;SDS011;46314;52.392;9.758;2023-06-22T02:45:50;15.43;;;14.13;;
60464;SDS011;46314;52.392;9.758;2023-06-22T02:48:17;15.98;;;14.57;;
60464;SDS011;46314;52.392;9.758;2023-06-22T02:50:44;15.52;;;13.98;;
60464;SDS011;46314;52.392;9.758;2023-06-22T02:53:10;16.17;;;13.75;;
60464;SDS011;46314;52.392;9.758;2023-06-22T02:55:39;15.27;;;13.88;;
60464;SDS011;46314;52.392;9.758;2023-06-22T02:58:06;15.40;;;14.00;;
60464;SDS011;46314;52.392;9.758;2023-06-22T03:00:32;15.77;;;14.38;;
60464;SDS011;46314;52.392;9.758;2023-06-22T03:02:59;15.52;;;14.13;;
60464;SDS011;46314;52.392;9.758;2023-06-22T03:05:26;15.90;;;14.38;;
60464;SDS011;46314;52.392;9.758;2023-06-22T03:07:52;14.77;;;13.48;;
60464;SDS011;46314;52.392;9.758;2023-06-22T03:10:19;15.20;;;14.00;;
60464;SDS011;46314;52.392;9.758;2023-06-22T03:12:47;15.93;;;14.63;;
60464;SDS011;46314;52.392;9.758;2023-06-22T03:15:13;17.17;;;15.45;;
60464;SDS011;46314;52.392;9.758;2023-06-22T03:17:39;16.45;;;15.00;;
60464;SDS011;46314;52.392;9.758;2023-06-22T03:20:07;16.05;;;14.55;;
60464;SDS011;46314;52.392;9.758;2023-06-22T03:22:34;15.10;;;13.80;;
60464;SDS011;46314;52.392;9.758;2023-06-22T03:25:01;15.55;;;14.15;;
60464;SDS011;46314;52.392;9.758;2023-06-22T03:27:27;15.77;;;14.43;;
60464;SDS011;46314;52.392;9.758;2023-06-22T03:29:56;14.48;;;13.15;;
60464;SDS011;46314;52.392;9.758;2023-06-22T03:32:23;16.05;;;14.57;;
60464;SDS011;46314;52.392;9.758;2023-06-22T03:34:49;15.57;;;14.18;;
60464;SDS011;46314;52.392;9.758;2023-06-22T03:37:16;16.83;;;15.32;;
60464;SDS011;46314;52.392;9.758;2023-06-22T03:39:42;16.33;;;14.75;;
60464;SDS011;46314;52.392;9.758;2023-06-22T03:42:08;14.60;;;13.40;;
60464;SDS011;46314;52.392;9.758;2023-06-22T03:44:35;16.00;;;14.52;;
60464;SDS011;46314;52.392;9.758;2023-06-22T03:47:03;15.55;;;14.15;;
60464;SDS011;46314;52.392;9.758;2023-06-22T03:49:30;15.40;;;13.90;;
60464;SDS011;46314;52.392;9.758;2023-06-22T03:51:57;14.70;;;13.50;;
60464;SDS011;46314;52.392;9.758;2023-06-22T03:54:23;15.18;;;13.77;;
60464;SDS011;46314;52.392;9.758;2023-06-22T03:56:50;14.75;;;13.35;;
60464;SDS011;46314;52.392;9.758;2023-06-22T03:59:16;15.90;;;14.32;;
60464;SDS011;46314;52.392;9.758;2023-06-22T04:01:42;15.02;;;13.70;;
60464;SDS011;46314;52.392;9.758;2023-06-22T04:04:10;14.55;;;13.13;;
60464;SDS011;46314;52.392;9.758;2023-06-22T04:06:37;16.30;;;14.70;;
60464;SDS011;46314;52.392;9.758;2023-06-22T04:09:03;15.68;;;14.10;;
60464;SDS011;46314;52.392;9.758;2023-06-22T04:11:31;14.77;;;13.48;;
60464;SDS011;46314;52.392;9.758;2023-06-22T04:13:57;15.82;;;14.48;;
60464;SDS011;46314;52.392;9.758;2023-06-22T04:16:24;15.85;;;14.10;;
60464;SDS011;46314;52.392;9.758;2023-06-22T04:18:50;15.95;;;14.40;;
60464;SDS011;46314;52.392;9.758;2023-06-22T04:21:18;16.50;;;14.82;;
60464;SDS011;46314;52.392;9.758;2023-06-22T04:23:45;15.82;;;14.25;;
60464;SDS011;46314;52.392;9.758;2023-06-22T04:26:11;13.88;;;12.68;;
60464;SDS011;46314;52.392;9.758;2023-06-22T04:28:38;15.10;;;13.80;;
60464;SDS011;46314;52.392;9.758;2023-06-22T04:31:04;16.17;;;14.70;;
60464;SDS011;46314;52.392;9.758;2023-06-22T04:33:31;15.27;;;13.88;;
60464;SDS011;46314;52.392;9.758;2023-06-22T04:35:58;14.25;;;13.05;;
60464;SDS011;46314;52.392;9.758;2023-06-22T04:38:26;13.95;;;12.77;;
60464;SDS011;46314;52.392;9.758;2023-06-22T04:40:53;17.65;;;13.45;;
60464;SDS011;46314;52.392;9.758;2023-06-22T04:43:20;14.20;;;12.70;;
60464;SDS011;46314;52.392;9.758;2023-06-22T04:45:46;15.18;;;13.77;;
60464;SDS011;46314;52.392;9.758;2023-06-22T04:48:13;15.27;;;13.77;;
60464;SDS011;46314;52.392;9.758;2023-06-22T04:50:39;15.13;;;13.80;;
60464;SDS011;46314;52.392;9.758;2023-06-22T04:53:06;15.05;;;13.75;;
60464;SDS011;46314;52.392;9.758;2023-06-22T04:55:34;13.10;;;12.02;;
60464;SDS011;46314;52.392;9.758;2023-06-22T04:58:00;14.55;;;13.38;;
60464;SDS011;46314;52.392;9.758;2023-06-22T05:00:27;13.27;;;12.07;;
60464;SDS011;46314;52.392;9.758;2023-06-22T05:02:54;15.05;;;13.75;;
60464;SDS011;46314;52.392;9.758;2023-06-22T05:05:36;13.65;;;12.40;;
60464;SDS011;46314;52.392;9.758;2023-06-22T05:08:03;15.50;;;13.88;;
60464;SDS011;46314;52.392;9.758;2023-06-22T05:10:30;14.93;;;13.43;;
60464;SDS011;46314;52.392;9.758;2023-06-22T05:12:58;14.45;;;13.10;;
60464;SDS011;46314;52.392;9.758;2023-06-22T05:15:25;15.25;;;13.48;;
60464;SDS011;46314;52.392;9.758;2023-06-22T05:17:52;14.52;;;12.45;;
60464;SDS011;46314;52.392;9.758;2023-06-22T05:20:18;13.23;;;11.98;;
60464;SDS011;46314;52.392;9.758;2023-06-22T05:22:45;15.35;;;12.82;;
60464;SDS011;46314;52.392;9.758;2023-06-22T05:25:12;12.82;;;11.52;;
60464;SDS011;46314;52.392;9.758;2023-06-22T05:27:39;13.35;;;12.05;;
60464;SDS011;46314;52.392;9.758;2023-06-22T05:30:08;13.35;;;12.07;;
60464;SDS011;46314;52.392;9.758;2023-06-22T05:32:35;13.23;;;12.02;;
60464;SDS011;46314;52.392;9.758;2023-06-22T05:35:02;12.65;;;11.43;;
60464;SDS011;46314;52.392;9.758;2023-06-22T05:37:30;12.57;;;11.30;;
60464;SDS011;46314;52.392;9.758;2023-06-22T05:39:56;12.60;;;11.50;;
60464;SDS011;46314;52.392;9.758;2023-06-22T05:42:23;11.55;;;10.45;;
60464;SDS011;46314;52.392;9.758;2023-06-22T05:44:49;12.40;;;11.15;;
60464;SDS011;46314;52.392;9.758;2023-06-22T05:47:17;11.40;;;10.30;;
60464;SDS011;46314;52.392;9.758;2023-06-22T05:49:44;11.65;;;10.57;;
60464;SDS011;46314;52.392;9.758;2023-06-22T05:52:10;12.23;;;10.93;;
60464;SDS011;46314;52.392;9.758;2023-06-22T05:54:37;10.93;;;9.90;;
60464;SDS011;46314;52.392;9.758;2023-06-22T05:57:03;11.18;;;9.55;;
60464;SDS011;46314;52.392;9.758;2023-06-22T05:59:30;11.57;;;10.32;;
60464;SDS011;46314;52.392;9.758;2023-06-22T06:01:57;10.90;;;9.93;;
60464;SDS011;46314;52.392;9.758;2023-06-22T06:04:24;11.35;;;10.45;;
60464;SDS011;46314;52.392;9.758;2023-06-22T06:06:52;10.23;;;9.32;;
60464;SDS011;46314;52.392;9.758;2023-06-22T06:09:18;11.48;;;10.38;;
60464;SDS011;46314;52.392;9.758;2023-06-22T06:11:45;10.82;;;9.82;;
60464;SDS011;46314;52.392;9.758;2023-06-22T06:14:11;10.00;;;9.25;;
60464;SDS011;46314;52.392;9.758;2023-06-22T06:16:38;9.52;;;8.73;;
60464;SDS011;46314;52.392;9.758;2023-06-22T06:19:04;9.68;;;8.75;;
60464;SDS011;46314;52.392;9.758;2023-06-22T06:21:32;10.15;;;9.27;;
60464;SDS011;46314;52.392;9.758;2023-06-22T06:23:58;9.10;;;8.20;;
60464;SDS011;46314;52.392;9.758;2023-06-22T06:26:25;8.57;;;7.82;;
60464;SDS011;46314;52.392;9.758;2023-06-22T06:28:51;11.82;;;8.68;;
60464;SDS011;46314;52.392;9.758;2023-06-22T06:31:18;10.27;;;8.45;;
60464;SDS011;46314;52.392;9.758;2023-06-22T06:33:44;9.57;;;8.68;;
60464;SDS011;46314;52.392;9.758;2023-06-22T06:36:11;9.32;;;8.40;;
60464;SDS011;46314;52.392;9.758;2023-06-22T06:38:39;9.20;;;8.30;;
60464;SDS011;46314;52.392;9.758;2023-06-22T06:41:05;8.25;;;7.63;;
60464;SDS011;46314;52.392;9.758;2023-06-22T06:43:32;9.02;;;8.27;;
60464;SDS011;46314;52.392;9.758;2023-06-22T06:45:58;8.60;;;7.70;;
60464;SDS011;46314;52.392;9.758;2023-06-22T06:48:25;7.95;;;6.93;;
60464;SDS011;46314;52.392;9.758;2023-06-22T06:50:51;8.48;;;7.78;;
60464;SDS011;46314;52.392;9.758;2023-06-22T06:53:18;7.85;;;7.20;;
60464;SDS011;46314;52.392;9.758;2023-06-22T06:55:45;8.57;;;7.78;;
60464;SDS011;46314;52.392;9.758;2023-06-22T06:58:12;7.75;;;7.03;;
60464;SDS011;46314;52.392;9.758;2023-06-22T07:00:38;7.60;;;7.00;;
60464;SDS011;46314;52.392;9.758;2023-06-22T07:03:05;7.57;;;6.88;;
60464;SDS011;46314;52.392;9.758;2023-06-22T07:05:31;8.25;;;7.43;;
60464;SDS011;46314;52.392;9.758;2023-06-22T07:07:58;8.57;;;6.65;;
60464;SDS011;46314;52.392;9.758;2023-06-22T07:10:24;7.43;;;6.72;;
60464;SDS011;46314;52.392;9.758;2023-06-22T07:12:52;11.52;;;7.80;;
60464;SDS011;46314;52.392;9.758;2023-06-22T07:15:19;9.27;;;8.48;;
60464;SDS011;46314;52.392;9.758;2023-06-22T07:17:47;7.30;;;6.60;;
60464;SDS011;46314;52.392;9.758;2023-06-22T07:20:13;9.95;;;7.70;;
60464;SDS011;46314;52.392;9.758;2023-06-22T07:22:41;8.50;;;7.70;;
60464;SDS011;46314;52.392;9.758;2023-06-22T07:25:08;11.75;;;8.35;;
60464;SDS011;46314;52.392;9.758;2023-06-22T07:27:36;9.68;;;7.45;;
60464;SDS011;46314;52.392;9.758;2023-06-22T07:30:04;11.07;;;8.82;;
60464;SDS011;46314;52.392;9.758;2023-06-22T07:32:32;10.32;;;7.85;;
60464;SDS011;46314;52.392;9.758;2023-06-22T07:34:58;12.88;;;8.93;;
60464;SDS011;46314;52.392;9.758;2023-06-22T07:37:25;10.18;;;8.18;;
60464;SDS011;46314;52.392;9.758;2023-06-22T07:39:51;9.82;;;8.50;;
60464;SDS011;46314;52.392;9.758;2023-06-22T07:42:18;8.57;;;7.70;;
60464;SDS011;46314;52.392;9.758;2023-06-22T07:44:44;9.00;;;7.10;;
60464;SDS011;46314;52.392;9.758;2023-06-22T07:47:12;8.40;;;6.80;;
60464;SDS011;46314;52.392;9.758;2023-06-22T07:49:38;9.25;;;8.25;;
60464;SDS011;46314;52.392;9.758;2023-06-22T07:52:05;8.70;;;7.90;;
60464;SDS011;46314;52.392;9.758;2023-06-22T07:54:32;7.97;;;7.28;;
60464;SDS011;46314;52.392;9.758;2023-06-22T07:56:58;7.28;;;6.57;;
60464;SDS011;46314;52.392;9.758;2023-06-22T07:59:27;9.82;;;6.93;;
60464;SDS011;46314;52.392;9.758;2023-06-22T08:01:54;8.88;;;7.43;;
60464;SDS011;46314;52.392;9.758;2023-06-22T08:04:23;7.68;;;6.72;;
60464;SDS011;46314;52.392;9.758;2023-06-22T08:06:49;8.23;;;7.43;;
60464;SDS011;46314;52.392;9.758;2023-06-22T08:09:15;11.05;;;6.80;;
60464;SDS011;46314;52.392;9.758;2023-06-22T08:11:42;10.70;;;6.82;;
60464;SDS011;46314;52.392;9.758;2023-06-22T08:14:08;8.05;;;6.93;;
60464;SDS011;46314;52.392;9.758;2023-06-22T08:16:35;11.75;;;7.78;;
60464;SDS011;46314;52.392;9.758;2023-06-22T08:19:01;8.10;;;7.28;;
60464;SDS011;46314;52.392;9.758;2023-06-22T08:21:29;7.88;;;7.18;;
60464;SDS011;46314;52.392;9.758;2023-06-22T08:23:55;8.45;;;6.90;;
60464;SDS011;46314;52.392;9.758;2023-06-22T08:26:22;8.85;;;7.80;;
60464;SDS011;46314;52.392;9.758;2023-06-22T08:28:48;8.85;;;7.53;;
60464;SDS011;46314;52.392;9.758;2023-06-22T08:31:16;8.73;;;7.72;;
60464;SDS011;46314;52.392;9.758;2023-06-22T08:33:42;10.00;;;8.02;;
60464;SDS011;46314;52.392;9.758;2023-06-22T08:36:15;11.15;;;8.20;;
60464;SDS011;46314;52.392;9.758;2023-06-22T08:38:43;8.98;;;8.13;;
60464;SDS011;46314;52.392;9.758;2023-06-22T08:41:09;9.50;;;8.60;;
60464;SDS011;46314;52.392;9.758;2023-06-22T08:43:35;10.02;;;9.13;;
60464;SDS011;46314;52.392;9.758;2023-06-22T08:46:02;10.55;;;9.52;;
60464;SDS011;46314;52.392;9.758;2023-06-22T08:48:29;11.27;;;10.18;;
60464;SDS011;46314;52.392;9.758;2023-06-22T08:50:55;10.75;;;9.85;;
60464;SDS011;46314;52.392;9.758;2023-06-22T08:53:22;10.18;;;9.10;;
60464;SDS011;46314;52.392;9.758;2023-06-22T08:55:49;10.43;;;9.18;;
60464;SDS011;46314;52.392;9.758;2023-06-22T08:58:16;10.35;;;9.32;;
60464;SDS011;46314;52.392;9.758;2023-06-22T09:00:42;11.02;;;9.80;;
60464;SDS011;46314;52.392;9.758;2023-06-22T09:03:09;10.35;;;9.45;;
60464;SDS011;46314;52.392;9.758;2023-06-22T09:05:39;11.43;;;10.43;;
60464;SDS011;46314;52.392;9.758;2023-06-22T09:08:06;14.35;;;11.27;;
60464;SDS011;46314;52.392;9.758;2023-06-22T09:10:33;11.48;;;10.48;;
60464;SDS011;46314;52.392;9.758;2023-06-22T09:13:01;11.30;;;10.27;;
60464;SDS011;46314;52.392;9.758;2023-06-22T09:15:27;13.32;;;11.98;;
60464;SDS011;46314;52.392;9.758;2023-06-22T09:17:54;16.52;;;10.90;;
60464;SDS011;46314;52.392;9.758;2023-06-22T09:20:21;12.05;;;10.90;;
60464;SDS011;46314;52.392;9.758;2023-06-22T09:22:47;12.73;;;11.50;;
60464;SDS011;46314;52.392;9.758;2023-06-22T09:25:14;15.73;;;14.15;;
60464;SDS011;46314;52.392;9.758;2023-06-22T09:27:40;14.80;;;13.25;;
60464;SDS011;46314;52.392;9.758;2023-06-22T09:30:11;15.73;;;14.25;;
60464;SDS011;46314;52.392;9.758;2023-06-22T09:32:38;14.40;;;12.98;;
60464;SDS011;46314;52.392;9.758;2023-06-22T09:35:05;14.05;;;12.63;;
60464;SDS011;46314;52.392;9.758;2023-06-22T09:37:32;13.63;;;12.23;;
60464;SDS011;46314;52.392;9.758;2023-06-22T09:39:58;14.88;;;12.40;;
60464;SDS011;46314;52.392;9.758;2023-06-22T09:42:25;14.10;;;12.65;;
60464;SDS011;46314;52.392;9.758;2023-06-22T09:44:51;13.00;;;11.80;;
60464;SDS011;46314;52.392;9.758;2023-06-22T09:47:19;15.20;;;13.70;;
60464;SDS011;46314;52.392;9.758;2023-06-22T09:49:46;14.90;;;13.63;;
60464;SDS011;46314;52.392;9.758;2023-06-22T09:52:14;13.60;;;12.30;;
60464;SDS011;46314;52.392;9.758;2023-06-22T09:54:42;14.90;;;13.55;;
60464;SDS011;46314;52.392;9.758;2023-06-22T09:57:08;15.30;;;13.70;;
60464;SDS011;46314;52.392;9.758;2023-06-22T09:59:35;16.13;;;13.63;;
60464;SDS011;46314;52.392;9.758;2023-06-22T10:02:01;13.98;;;12.73;;
60464;SDS011;46314;52.392;9.758;2023-06-22T10:04:29;15.38;;;13.55;;
60464;SDS011;46314;52.392;9.758;2023-06-22T10:06:56;15.50;;;13.88;;
60464;SDS011;46314;52.392;9.758;2023-06-22T10:09:23;14.85;;;13.20;;
60464;SDS011;46314;52.392;9.758;2023-06-22T10:11:49;17.98;;;13.35;;
60464;SDS011;46314;52.392;9.758;2023-06-22T10:14:16;15.77;;;13.70;;
60464;SDS011;46314;52.392;9.758;2023-06-22T10:16:42;18.23;;;15.18;;
60464;SDS011;46314;52.392;9.758;2023-06-22T10:19:09;15.40;;;13.88;;
60464;SDS011;46314;52.392;9.758;2023-06-22T10:21:37;16.48;;;13.13;;
60464;SDS011;46314;52.392;9.758;2023-06-22T10:24:03;14.18;;;12.70;;
60464;SDS011;46314;52.392;9.758;2023-06-22T10:26:30;14.52;;;12.85;;
60464;SDS011;46314;52.392;9.758;2023-06-22T10:28:56;16.10;;;14.35;;
60464;SDS011;46314;52.392;9.758;2023-06-22T10:31:41;15.48;;;13.98;;
60464;SDS011;46314;52.392;9.758;2023-06-22T10:34:08;14.63;;;13.10;;
60464;SDS011;46314;52.392;9.758;2023-06-22T10:36:34;14.73;;;13.32;;
60464;SDS011;46314;52.392;9.758;2023-06-22T10:39:02;14.40;;;13.10;;
60464;SDS011;46314;52.392;9.758;2023-06-22T10:41:28;16.40;;;14.57;;
60464;SDS011;46314;52.392;9.758;2023-06-22T10:43:55;16.35;;;13.07;;
60464;SDS011;46314;52.392;9.758;2023-06-22T10:46:23;16.08;;;14.57;;
60464;SDS011;46314;52.392;9.758;2023-06-22T10:48:50;18.63;;;15.38;;
60464;SDS011;46314;52.392;9.758;2023-06-22T10:51:16;15.88;;;14.10;;
60464;SDS011;46314;52.392;9.758;2023-06-22T10:53:43;15.68;;;13.95;;
60464;SDS011;46314;52.392;9.758;2023-06-22T10:56:11;15.57;;;14.07;;
60464;SDS011;46314;52.392;9.758;2023-06-22T10:58:37;15.25;;;13.95;;
60464;SDS011;46314;52.392;9.758;2023-06-22T11:01:04;15.90;;;14.02;;
60464;SDS011;46314;52.392;9.758;2023-06-22T11:03:30;15.52;;;13.93;;
60464;SDS011;46314;52.392;9.758;2023-06-22T11:05:57;16.15;;;14.57;;
60464;SDS011;46314;52.392;9.758;2023-06-22T11:08:23;17.50;;;14.93;;
60464;SDS011;46314;52.392;9.758;2023-06-22T11:10:50;14.95;;;13.45;;
60464;SDS011;46314;52.392;9.758;2023-06-22T11:13:19;15.25;;;13.77;;
60464;SDS011;46314;52.392;9.758;2023-06-22T11:15:45;14.90;;;13.55;;
60464;SDS011;46314;52.392;9.758;2023-06-22T11:18:12;16.40;;;14.02;;
60464;SDS011;46314;52.392;9.758;2023-06-22T11:20:38;15.77;;;14.27;;
60464;SDS011;46314;52.392;9.758;2023-06-22T11:23:05;15.30;;;13.98;;
60464;SDS011;46314;52.392;9.758;2023-06-22T11:25:32;14.15;;;12.80;;
60464;SDS011;46314;52.392;9.758;2023-06-22T11:27:58;16.58;;;14.98;;
60464;SDS011;46314;52.392;9.758;2023-06-22T11:30:26;14.88;;;13.48;;
60464;SDS011;46314;52.392;9.758;2023-06-22T11:32:53;14.38;;;12.98;;
60464;SDS011;46314;52.392;9.758;2023-06-22T11:35:20;14.57;;;13.18;;
60464;SDS011;46314;52.392;9.758;2023-06-22T11:37:46;14.70;;;13.30;;
60464;SDS011;46314;52.392;9.758;2023-06-22T11:40:13;15.65;;;14.13;;
60464;SDS011;46314;52.392;9.758;2023-06-22T11:42:39;14.32;;;13.05;;
60464;SDS011;46314;52.392;9.758;2023-06-22T11:45:06;16.33;;;14.73;;
60464;SDS011;46314;52.392;9.758;2023-06-22T11:47:34;14.13;;;12.73;;
60464;SDS011;46314;52.392;9.758;2023-06-22T11:50:01;15.73;;;14.43;;
60464;SDS011;46314;52.392;9.758;2023-06-22T11:52:28;17.95;;;15.40;;
60464;SDS011;46314;52.392;9.758;2023-06-22T11:54:54;16.92;;;15.43;;
60464;SDS011;46314;52.392;9.758;2023-06-22T11:57:21;15.65;;;14.25;;
60464;SDS011;46314;52.392;9.758;2023-06-22T11:59:47;20.27;;;14.48;;
60464;SDS011;46314;52.392;9.758;2023-06-22T12:02:14;16.00;;;14.45;;
60464;SDS011;46314;52.392;9.758;2023-06-22T12:04:42;17.08;;;15.43;;
60464;SDS011;46314;52.392;9.758;2023-06-22T12:07:08;15.65;;;14.30;;
60464;SDS011;46314;52.392;9.758;2023-06-22T12:09:35;16.17;;;14.30;;
60464;SDS011;46314;52.392;9.758;2023-06-22T12:12:01;14.88;;;13.55;;
60464;SDS011;46314;52.392;9.758;2023-06-22T12:14:28;15.35;;;14.05;;
60464;SDS011;46314;52.392;9.758;2023-06-22T12:16:57;13.70;;;12.50;;
60464;SDS011;46314;52.392;9.758;2023-06-22T12:19:24;15.18;;;13.82;;
60464;SDS011;46314;52.392;9.758;2023-06-22T12:21:52;14.13;;;12.93;;
60464;SDS011;46314;52.392;9.758;2023-06-22T12:24:18;14.88;;;13.50;;
60464;SDS011;46314;52.392;9.758;2023-06-22T12:26:44;13.77;;;12.68;;
60464;SDS011;46314;52.392;9.758;2023-06-22T12:29:11;17.85;;;16.15;;
60464;SDS011;46314;52.392;9.758;2023-06-22T12:31:37;14.95;;;13.75;;
60464;SDS011;46314;52.392;9.758;2023-06-22T12:34:04;15.55;;;14.13;;
60464;SDS011;46314;52.392;9.758;2023-06-22T12:36:30;15.48;;;14.07;;
60464;SDS011;46314;52.392;9.758;2023-06-22T12:38:58;16.50;;;14.80;;
60464;SDS011;46314;52.392;9.758;2023-06-22T12:41:25;17.25;;;15.80;;
60464;SDS011;46314;52.392;9.758;2023-06-22T12:43:51;15.98;;;14.45;;
60464;SDS011;46314;52.392;9.758;2023-06-22T12:46:17;15.10;;;13.80;;
60464;SDS011;46314;52.392;9.758;2023-06-22T12:48:44;15.32;;;13.98;;
60464;SDS011;46314;52.392;9.758;2023-06-22T12:51:10;15.60;;;14.00;;
60464;SDS011;46314;52.392;9.758;2023-06-22T12:53:37;16.30;;;13.38;;
60464;SDS011;46314;52.392;9.758;2023-06-22T12:56:05;15.50;;;14.00;;
60464;SDS011;46314;52.392;9.758;2023-06-22T12:58:31;15.27;;;13.70;;
60464;SDS011;46314;52.392;9.758;2023-06-22T13:00:58;18.98;;;15.18;;
60464;SDS011;46314;52.392;9.758;2023-06-22T13:03:24;16.10;;;14.50;;
60464;SDS011;46314;52.392;9.758;2023-06-22T13:05:51;14.98;;;13.48;;
60464;SDS011;46314;52.392;9.758;2023-06-22T13:08:17;15.65;;;14.18;;
60464;SDS011;46314;52.392;9.758;2023-06-22T13:10:44;14.90;;;13.60;;
60464;SDS011;46314;52.392;9.758;2023-06-22T13:13:12;14.52;;;13.15;;
60464;SDS011;46314;52.392;9.758;2023-06-22T13:15:38;14.48;;;13.18;;
60464;SDS011;46314;52.392;9.758;2023-06-22T13:18:05;14.57;;;13.25;;
60464;SDS011;46314;52.392;9.758;2023-06-22T13:20:31;14.57;;;13.25;;
60464;SDS011;46314;52.392;9.758;2023-06-22T13:22:58;14.70;;;13.35;;
60464;SDS011;46314;52.392;9.758;2023-06-22T13:25:24;15.18;;;13.93;;
60464;SDS011;46314;52.392;9.758;2023-06-22T13:27:51;14.80;;;13.60;;
60464;SDS011;46314;52.392;9.758;2023-06-22T13:30:19;14.73;;;13.43;;
60464;SDS011;46314;52.392;9.758;2023-06-22T13:32:46;16.15;;;14.75;;
60464;SDS011;46314;52.392;9.758;2023-06-22T13:35:12;14.65;;;13.35;;
60464;SDS011;46314;52.392;9.758;2023-06-22T13:37:39;14.52;;;13.18;;
60464;SDS011;46314;52.392;9.758;2023-06-22T13:40:06;15.77;;;14.35;;
60464;SDS011;46314;52.392;9.758;2023-06-22T13:42:33;14.82;;;13.55;;
60464;SDS011;46314;52.392;9.758;2023-06-22T13:45:00;15.52;;;14.13;;
60464;SDS011;46314;52.392;9.758;2023-06-22T13:47:28;15.30;;;13.90;;
60464;SDS011;46314;52.392;9.758;2023-06-22T13:49:56;16.70;;;15.20;;
60464;SDS011;46314;52.392;9.758;2023-06-22T13:52:23;15.55;;;14.25;;
60464;SDS011;46314;52.392;9.758;2023-06-22T13:54:49;16.95;;;15.45;;
60464;SDS011;46314;52.392;9.758;2023-06-22T13:57:16;15.52;;;14.02;;
60464;SDS011;46314;52.392;9.758;2023-06-22T13:59:42;15.23;;;13.93;;
60464;SDS011;46314;52.392;9.758;2023-06-22T14:02:09;15.75;;;14.32;;
60464;SDS011;46314;52.392;9.758;2023-06-22T14:04:37;16.08;;;14.73;;
60464;SDS011;46314;52.392;9.758;2023-06-22T14:07:04;16.08;;;14.27;;
60464;SDS011;46314;52.392;9.758;2023-06-22T14:09:31;17.67;;;16.23;;
60464;SDS011;46314;52.392;9.758;2023-06-22T14:11:57;15.35;;;14.00;;
60464;SDS011;46314;52.392;9.758;2023-06-22T14:14:24;16.35;;;14.95;;
60464;SDS011;46314;52.392;9.758;2023-06-22T14:16:50;16.63;;;15.07;;
60464;SDS011;46314;52.392;9.758;2023-06-22T14:19:17;16.50;;;15.10;;
60464;SDS011;46314;52.392;9.758;2023-06-22T14:21:45;17.67;;;16.13;;
60464;SDS011;46314;52.392;9.758;2023-06-22T14:24:11;17.58;;;15.90;;
60464;SDS011;46314;52.392;9.758;2023-06-22T14:26:37;18.80;;;17.20;;
60464;SDS011;46314;52.392;9.758;2023-06-22T14:29:04;16.48;;;15.07;;